Terminal Aerodrome Forecast
Issued by NWS

Home | Current Version | Previous Version | Text Only | Print | Product List | Glossary On
Versions: 1 2 3 4 5 6 7 8 9 10 11 12 13 14 15 16 17 18 19 20
426
FTUS41 KAKQ 271132
TAFPHF
TAF
KPHF 271132Z 2712/2812 20010KT P6SM SCT050
     FM271700 21012G20KT P6SM SCT050
     FM272200 19010KT P6SM BKN090=

USA.gov is the U.S. government's official web portal to all federal, state and local government web resources and services.